sensor_id;sensor_type;location;lat;lon;timestamp;P1;durP1;ratioP1;P2;durP2;ratioP2
35444;SDS011;21562;49.476;6.086;2023-06-14T00:00:13;8.38;;;4.60;;
35444;SDS011;21562;49.476;6.086;2023-06-14T00:02:40;9.10;;;4.88;;
35444;SDS011;21562;49.476;6.086;2023-06-14T00:05:06;7.78;;;5.10;;
35444;SDS011;21562;49.476;6.086;2023-06-14T00:07:36;6.80;;;4.60;;
35444;SDS011;21562;49.476;6.086;2023-06-14T00:10:13;9.90;;;4.40;;
35444;SDS011;21562;49.476;6.086;2023-06-14T00:12:39;7.38;;;4.57;;
35444;SDS011;21562;49.476;6.086;2023-06-14T00:15:07;8.20;;;4.53;;
35444;SDS011;21562;49.476;6.086;2023-06-14T00:17:34;6.38;;;4.88;;
35444;SDS011;21562;49.476;6.086;2023-06-14T00:20:01;6.43;;;4.97;;
35444;SDS011;21562;49.476;6.086;2023-06-14T00:22:30;7.72;;;4.93;;
35444;SDS011;21562;49.476;6.086;2023-06-14T00:24:56;6.53;;;4.65;;
35444;SDS011;21562;49.476;6.086;2023-06-14T00:27:22;7.13;;;4.28;;
35444;SDS011;21562;49.476;6.086;2023-06-14T00:29:48;7.53;;;4.45;;
35444;SDS011;21562;49.476;6.086;2023-06-14T00:32:13;8.73;;;4.47;;
35444;SDS011;21562;49.476;6.086;2023-06-14T00:34:39;11.75;;;4.75;;
35444;SDS011;21562;49.476;6.086;2023-06-14T00:37:04;8.60;;;4.38;;
35444;SDS011;21562;49.476;6.086;2023-06-14T00:39:30;7.25;;;4.90;;
35444;SDS011;21562;49.476;6.086;2023-06-14T00:41:56;7.68;;;4.72;;
35444;SDS011;21562;49.476;6.086;2023-06-14T00:44:22;7.70;;;4.75;;
35444;SDS011;21562;49.476;6.086;2023-06-14T00:46:48;7.78;;;4.25;;
35444;SDS011;21562;49.476;6.086;2023-06-14T00:49:14;7.65;;;4.25;;
35444;SDS011;21562;49.476;6.086;2023-06-14T00:51:42;9.23;;;5.20;;
35444;SDS011;21562;49.476;6.086;2023-06-14T00:54:08;6.60;;;4.75;;
35444;SDS011;21562;49.476;6.086;2023-06-14T00:56:36;9.23;;;4.68;;
35444;SDS011;21562;49.476;6.086;2023-06-14T00:59:02;6.90;;;4.70;;
35444;SDS011;21562;49.476;6.086;2023-06-14T01:01:28;7.05;;;4.78;;
35444;SDS011;21562;49.476;6.086;2023-06-14T01:03:57;5.97;;;4.03;;
35444;SDS011;21562;49.476;6.086;2023-06-14T01:09:13;8.52;;;4.82;;
35444;SDS011;21562;49.476;6.086;2023-06-14T01:14:17;6.95;;;4.47;;
35444;SDS011;21562;49.476;6.086;2023-06-14T01:16:44;8.40;;;4.35;;
35444;SDS011;21562;49.476;6.086;2023-06-14T01:19:11;8.07;;;4.05;;
35444;SDS011;21562;49.476;6.086;2023-06-14T01:21:38;7.07;;;4.65;;
35444;SDS011;21562;49.476;6.086;2023-06-14T01:24:07;10.30;;;4.80;;
35444;SDS011;21562;49.476;6.086;2023-06-14T01:26:33;5.30;;;4.35;;
35444;SDS011;21562;49.476;6.086;2023-06-14T01:29:02;8.68;;;4.57;;
35444;SDS011;21562;49.476;6.086;2023-06-14T01:31:28;6.13;;;4.00;;
35444;SDS011;21562;49.476;6.086;2023-06-14T01:34:04;7.18;;;4.32;;
35444;SDS011;21562;49.476;6.086;2023-06-14T01:36:30;9.20;;;4.78;;
35444;SDS011;21562;49.476;6.086;2023-06-14T01:38:56;8.55;;;4.18;;
35444;SDS011;21562;49.476;6.086;2023-06-14T01:41:24;6.28;;;3.97;;
35444;SDS011;21562;49.476;6.086;2023-06-14T01:43:51;8.95;;;4.32;;
35444;SDS011;21562;49.476;6.086;2023-06-14T01:46:17;5.82;;;4.43;;
35444;SDS011;21562;49.476;6.086;2023-06-14T01:48:45;6.57;;;3.83;;
35444;SDS011;21562;49.476;6.086;2023-06-14T01:51:10;5.95;;;4.60;;
35444;SDS011;21562;49.476;6.086;2023-06-14T01:53:36;7.80;;;4.80;;
35444;SDS011;21562;49.476;6.086;2023-06-14T01:56:02;7.45;;;5.05;;
35444;SDS011;21562;49.476;6.086;2023-06-14T01:58:28;7.53;;;4.65;;
35444;SDS011;21562;49.476;6.086;2023-06-14T02:00:54;7.70;;;4.60;;
35444;SDS011;21562;49.476;6.086;2023-06-14T02:03:23;6.88;;;4.72;;
35444;SDS011;21562;49.476;6.086;2023-06-14T02:05:49;9.30;;;4.88;;
35444;SDS011;21562;49.476;6.086;2023-06-14T02:08:15;7.10;;;4.68;;
35444;SDS011;21562;49.476;6.086;2023-06-14T02:10:40;7.15;;;4.40;;
35444;SDS011;21562;49.476;6.086;2023-06-14T02:13:06;9.43;;;4.75;;
35444;SDS011;21562;49.476;6.086;2023-06-14T02:15:31;8.57;;;4.43;;
35444;SDS011;21562;49.476;6.086;2023-06-14T02:18:03;9.32;;;5.03;;
35444;SDS011;21562;49.476;6.086;2023-06-14T02:20:29;9.93;;;4.75;;
35444;SDS011;21562;49.476;6.086;2023-06-14T02:22:56;6.95;;;4.80;;
35444;SDS011;21562;49.476;6.086;2023-06-14T02:25:22;11.52;;;4.80;;
35444;SDS011;21562;49.476;6.086;2023-06-14T02:27:47;6.03;;;4.38;;
35444;SDS011;21562;49.476;6.086;2023-06-14T02:30:13;7.68;;;4.97;;
35444;SDS011;21562;49.476;6.086;2023-06-14T02:32:40;7.57;;;5.25;;
35444;SDS011;21562;49.476;6.086;2023-06-14T02:35:08;7.63;;;4.90;;
35444;SDS011;21562;49.476;6.086;2023-06-14T02:37:33;8.98;;;4.80;;
35444;SDS011;21562;49.476;6.086;2023-06-14T02:40:00;8.05;;;4.63;;
35444;SDS011;21562;49.476;6.086;2023-06-14T02:42:25;5.88;;;4.68;;
35444;SDS011;21562;49.476;6.086;2023-06-14T02:44:51;6.95;;;4.82;;
35444;SDS011;21562;49.476;6.086;2023-06-14T02:47:19;10.60;;;4.68;;
35444;SDS011;21562;49.476;6.086;2023-06-14T02:49:45;8.35;;;4.63;;
35444;SDS011;21562;49.476;6.086;2023-06-14T02:52:13;8.68;;;5.50;;
35444;SDS011;21562;49.476;6.086;2023-06-14T02:54:39;6.57;;;4.18;;
35444;SDS011;21562;49.476;6.086;2023-06-14T02:57:06;6.13;;;4.75;;
35444;SDS011;21562;49.476;6.086;2023-06-14T02:59:32;7.43;;;5.00;;
35444;SDS011;21562;49.476;6.086;2023-06-14T03:01:58;8.43;;;5.10;;
35444;SDS011;21562;49.476;6.086;2023-06-14T03:04:24;8.32;;;5.10;;
35444;SDS011;21562;49.476;6.086;2023-06-14T03:06:54;8.32;;;5.20;;
35444;SDS011;21562;49.476;6.086;2023-06-14T03:09:20;6.50;;;4.90;;
35444;SDS011;21562;49.476;6.086;2023-06-14T03:11:46;10.52;;;5.32;;
35444;SDS011;21562;49.476;6.086;2023-06-14T03:14:11;8.48;;;4.82;;
35444;SDS011;21562;49.476;6.086;2023-06-14T03:16:38;6.15;;;4.47;;
35444;SDS011;21562;49.476;6.086;2023-06-14T03:19:04;10.10;;;5.35;;
35444;SDS011;21562;49.476;6.086;2023-06-14T03:21:29;6.53;;;4.88;;
35444;SDS011;21562;49.476;6.086;2023-06-14T03:23:55;12.95;;;4.65;;
35444;SDS011;21562;49.476;6.086;2023-06-14T03:26:21;6.05;;;4.35;;
35444;SDS011;21562;49.476;6.086;2023-06-14T03:28:47;6.65;;;4.50;;
35444;SDS011;21562;49.476;6.086;2023-06-14T03:31:15;8.70;;;5.30;;
35444;SDS011;21562;49.476;6.086;2023-06-14T03:33:41;9.18;;;4.97;;
35444;SDS011;21562;49.476;6.086;2023-06-14T03:36:07;8.15;;;5.03;;
35444;SDS011;21562;49.476;6.086;2023-06-14T03:38:33;4.90;;;4.25;;
35444;SDS011;21562;49.476;6.086;2023-06-14T03:40:59;8.00;;;4.85;;
35444;SDS011;21562;49.476;6.086;2023-06-14T03:43:25;7.72;;;4.80;;
35444;SDS011;21562;49.476;6.086;2023-06-14T03:45:50;8.20;;;4.95;;
35444;SDS011;21562;49.476;6.086;2023-06-14T03:48:16;7.40;;;4.75;;
35444;SDS011;21562;49.476;6.086;2023-06-14T03:50:42;8.77;;;4.65;;
35444;SDS011;21562;49.476;6.086;2023-06-14T03:53:07;9.10;;;4.68;;
35444;SDS011;21562;49.476;6.086;2023-06-14T03:55:33;9.48;;;5.20;;
35444;SDS011;21562;49.476;6.086;2023-06-14T03:57:59;6.80;;;4.78;;
35444;SDS011;21562;49.476;6.086;2023-06-14T04:00:25;7.82;;;4.82;;
35444;SDS011;21562;49.476;6.086;2023-06-14T04:02:52;7.68;;;4.65;;
35444;SDS011;21562;49.476;6.086;2023-06-14T04:05:18;9.93;;;4.80;;
35444;SDS011;21562;49.476;6.086;2023-06-14T04:07:45;17.58;;;4.47;;
35444;SDS011;21562;49.476;6.086;2023-06-14T04:10:14;5.43;;;4.10;;
35444;SDS011;21562;49.476;6.086;2023-06-14T04:12:41;8.02;;;4.78;;
35444;SDS011;21562;49.476;6.086;2023-06-14T04:15:07;6.68;;;4.72;;
35444;SDS011;21562;49.476;6.086;2023-06-14T04:17:34;6.22;;;4.53;;
35444;SDS011;21562;49.476;6.086;2023-06-14T04:20:00;11.23;;;4.82;;
35444;SDS011;21562;49.476;6.086;2023-06-14T04:22:29;7.40;;;4.68;;
35444;SDS011;21562;49.476;6.086;2023-06-14T04:24:56;5.45;;;4.20;;
35444;SDS011;21562;49.476;6.086;2023-06-14T04:27:22;12.70;;;4.75;;
35444;SDS011;21562;49.476;6.086;2023-06-14T04:29:50;9.20;;;5.13;;
35444;SDS011;21562;49.476;6.086;2023-06-14T04:32:21;9.48;;;5.38;;
35444;SDS011;21562;49.476;6.086;2023-06-14T04:34:54;7.40;;;4.32;;
35444;SDS011;21562;49.476;6.086;2023-06-14T04:37:21;10.00;;;4.75;;
35444;SDS011;21562;49.476;6.086;2023-06-14T04:39:47;7.72;;;4.53;;
35444;SDS011;21562;49.476;6.086;2023-06-14T04:42:13;9.65;;;4.80;;
35444;SDS011;21562;49.476;6.086;2023-06-14T04:44:40;8.38;;;4.57;;
35444;SDS011;21562;49.476;6.086;2023-06-14T04:47:07;6.50;;;4.30;;
35444;SDS011;21562;49.476;6.086;2023-06-14T04:49:32;11.05;;;4.95;;
35444;SDS011;21562;49.476;6.086;2023-06-14T04:51:59;15.68;;;5.35;;
35444;SDS011;21562;49.476;6.086;2023-06-14T04:54:26;11.80;;;5.05;;
35444;SDS011;21562;49.476;6.086;2023-06-14T04:56:52;9.38;;;4.63;;
35444;SDS011;21562;49.476;6.086;2023-06-14T04:59:20;9.27;;;4.78;;
35444;SDS011;21562;49.476;6.086;2023-06-14T05:01:48;9.98;;;4.57;;
35444;SDS011;21562;49.476;6.086;2023-06-14T05:04:17;11.10;;;5.78;;
35444;SDS011;21562;49.476;6.086;2023-06-14T05:06:44;12.45;;;5.00;;
35444;SDS011;21562;49.476;6.086;2023-06-14T05:09:13;9.38;;;4.97;;
35444;SDS011;21562;49.476;6.086;2023-06-14T05:11:39;9.80;;;5.20;;
35444;SDS011;21562;49.476;6.086;2023-06-14T05:14:07;7.18;;;5.03;;
35444;SDS011;21562;49.476;6.086;2023-06-14T05:16:33;11.60;;;4.53;;
35444;SDS011;21562;49.476;6.086;2023-06-14T05:18:58;7.85;;;4.50;;
35444;SDS011;21562;49.476;6.086;2023-06-14T05:21:24;7.03;;;4.82;;
35444;SDS011;21562;49.476;6.086;2023-06-14T05:23:50;10.93;;;4.32;;
35444;SDS011;21562;49.476;6.086;2023-06-14T05:26:16;10.30;;;3.90;;
35444;SDS011;21562;49.476;6.086;2023-06-14T05:28:42;10.98;;;4.43;;
35444;SDS011;21562;49.476;6.086;2023-06-14T05:31:07;6.13;;;3.83;;
35444;SDS011;21562;49.476;6.086;2023-06-14T05:33:33;8.93;;;4.32;;
35444;SDS011;21562;49.476;6.086;2023-06-14T05:35:58;13.63;;;4.50;;
35444;SDS011;21562;49.476;6.086;2023-06-14T05:38:24;7.88;;;4.45;;
35444;SDS011;21562;49.476;6.086;2023-06-14T05:40:50;12.95;;;4.22;;
35444;SDS011;21562;49.476;6.086;2023-06-14T05:43:16;8.00;;;4.10;;
35444;SDS011;21562;49.476;6.086;2023-06-14T05:45:44;8.18;;;3.90;;
35444;SDS011;21562;49.476;6.086;2023-06-14T05:48:17;9.93;;;4.88;;
35444;SDS011;21562;49.476;6.086;2023-06-14T05:50:44;8.65;;;4.75;;
35444;SDS011;21562;49.476;6.086;2023-06-14T05:53:15;8.93;;;4.68;;
35444;SDS011;21562;49.476;6.086;2023-06-14T05:58:54;8.55;;;4.53;;
35444;SDS011;21562;49.476;6.086;2023-06-14T06:01:48;7.93;;;5.30;;
35444;SDS011;21562;49.476;6.086;2023-06-14T06:04:14;11.20;;;4.90;;
35444;SDS011;21562;49.476;6.086;2023-06-14T06:06:40;9.48;;;4.93;;
35444;SDS011;21562;49.476;6.086;2023-06-14T06:09:05;8.40;;;4.50;;
35444;SDS011;21562;49.476;6.086;2023-06-14T06:11:31;9.48;;;4.82;;
35444;SDS011;21562;49.476;6.086;2023-06-14T06:13:57;10.40;;;5.00;;
35444;SDS011;21562;49.476;6.086;2023-06-14T06:16:23;8.27;;;5.35;;
35444;SDS011;21562;49.476;6.086;2023-06-14T06:18:48;12.20;;;5.68;;
35444;SDS011;21562;49.476;6.086;2023-06-14T06:21:14;12.77;;;5.78;;
35444;SDS011;21562;49.476;6.086;2023-06-14T06:23:40;13.30;;;4.65;;
35444;SDS011;21562;49.476;6.086;2023-06-14T06:26:06;15.55;;;5.07;;
35444;SDS011;21562;49.476;6.086;2023-06-14T06:28:32;15.05;;;4.43;;
35444;SDS011;21562;49.476;6.086;2023-06-14T06:30:57;13.10;;;5.28;;
35444;SDS011;21562;49.476;6.086;2023-06-14T06:33:23;16.58;;;4.95;;
35444;SDS011;21562;49.476;6.086;2023-06-14T06:35:49;18.58;;;6.07;;
35444;SDS011;21562;49.476;6.086;2023-06-14T06:38:14;11.50;;;5.03;;
35444;SDS011;21562;49.476;6.086;2023-06-14T06:40:40;14.18;;;5.18;;
35444;SDS011;21562;49.476;6.086;2023-06-14T06:43:05;11.07;;;5.82;;
35444;SDS011;21562;49.476;6.086;2023-06-14T06:45:31;13.00;;;5.20;;
35444;SDS011;21562;49.476;6.086;2023-06-14T06:47:58;14.63;;;5.82;;
35444;SDS011;21562;49.476;6.086;2023-06-14T06:50:23;12.18;;;5.20;;
35444;SDS011;21562;49.476;6.086;2023-06-14T06:52:49;26.70;;;5.25;;
35444;SDS011;21562;49.476;6.086;2023-06-14T06:55:16;12.18;;;4.75;;
35444;SDS011;21562;49.476;6.086;2023-06-14T06:57:42;11.15;;;5.10;;
35444;SDS011;21562;49.476;6.086;2023-06-14T07:00:08;12.98;;;5.03;;
35444;SDS011;21562;49.476;6.086;2023-06-14T07:02:34;8.57;;;4.75;;
35444;SDS011;21562;49.476;6.086;2023-06-14T07:05:00;8.52;;;5.20;;
35444;SDS011;21562;49.476;6.086;2023-06-14T07:23:58;12.35;;;4.70;;
35444;SDS011;21562;49.476;6.086;2023-06-14T07:26:23;14.75;;;5.60;;
35444;SDS011;21562;49.476;6.086;2023-06-14T07:28:50;11.63;;;5.80;;
35444;SDS011;21562;49.476;6.086;2023-06-14T07:31:16;13.32;;;5.28;;
35444;SDS011;21562;49.476;6.086;2023-06-14T07:33:42;6.88;;;5.00;;
35444;SDS011;21562;49.476;6.086;2023-06-14T07:36:07;13.55;;;4.80;;
35444;SDS011;21562;49.476;6.086;2023-06-14T07:38:33;10.90;;;5.65;;
35444;SDS011;21562;49.476;6.086;2023-06-14T07:40:59;7.95;;;4.47;;
35444;SDS011;21562;49.476;6.086;2023-06-14T07:43:25;9.75;;;5.28;;
35444;SDS011;21562;49.476;6.086;2023-06-14T07:45:51;11.63;;;5.18;;
35444;SDS011;21562;49.476;6.086;2023-06-14T07:48:16;11.98;;;5.47;;
35444;SDS011;21562;49.476;6.086;2023-06-14T07:50:42;10.40;;;4.90;;
35444;SDS011;21562;49.476;6.086;2023-06-14T07:53:08;13.25;;;5.38;;
35444;SDS011;21562;49.476;6.086;2023-06-14T07:55:34;7.50;;;4.43;;
35444;SDS011;21562;49.476;6.086;2023-06-14T07:58:02;8.45;;;4.78;;
35444;SDS011;21562;49.476;6.086;2023-06-14T08:00:28;7.63;;;5.03;;
35444;SDS011;21562;49.476;6.086;2023-06-14T08:02:53;8.32;;;4.88;;
35444;SDS011;21562;49.476;6.086;2023-06-14T08:05:23;9.90;;;4.45;;
35444;SDS011;21562;49.476;6.086;2023-06-14T08:07:49;8.18;;;5.20;;
35444;SDS011;21562;49.476;6.086;2023-06-14T08:10:15;8.32;;;4.93;;
35444;SDS011;21562;49.476;6.086;2023-06-14T08:12:41;10.40;;;4.32;;
35444;SDS011;21562;49.476;6.086;2023-06-14T08:15:07;10.50;;;4.63;;
35444;SDS011;21562;49.476;6.086;2023-06-14T08:17:34;9.93;;;4.93;;
35444;SDS011;21562;49.476;6.086;2023-06-14T08:20:00;9.07;;;4.47;;
35444;SDS011;21562;49.476;6.086;2023-06-14T08:22:25;9.10;;;4.57;;
35444;SDS011;21562;49.476;6.086;2023-06-14T08:24:53;10.15;;;4.65;;
35444;SDS011;21562;49.476;6.086;2023-06-14T08:27:19;9.45;;;4.75;;
35444;SDS011;21562;49.476;6.086;2023-06-14T08:29:45;12.07;;;4.65;;
35444;SDS011;21562;49.476;6.086;2023-06-14T08:32:11;11.65;;;5.43;;
35444;SDS011;21562;49.476;6.086;2023-06-14T08:34:37;10.40;;;4.88;;
35444;SDS011;21562;49.476;6.086;2023-06-14T08:37:03;9.70;;;4.95;;
35444;SDS011;21562;49.476;6.086;2023-06-14T08:39:30;12.50;;;5.13;;
35444;SDS011;21562;49.476;6.086;2023-06-14T08:41:55;11.55;;;4.68;;
35444;SDS011;21562;49.476;6.086;2023-06-14T08:44:22;9.63;;;4.82;;
35444;SDS011;21562;49.476;6.086;2023-06-14T08:46:48;8.13;;;4.40;;
35444;SDS011;21562;49.476;6.086;2023-06-14T08:49:16;13.02;;;5.03;;
35444;SDS011;21562;49.476;6.086;2023-06-14T08:51:42;21.80;;;4.72;;
35444;SDS011;21562;49.476;6.086;2023-06-14T08:54:09;9.55;;;5.28;;
35444;SDS011;21562;49.476;6.086;2023-06-14T08:56:38;13.70;;;5.30;;
35444;SDS011;21562;49.476;6.086;2023-06-14T08:59:04;13.27;;;4.38;;
35444;SDS011;21562;49.476;6.086;2023-06-14T09:01:34;10.65;;;5.05;;
35444;SDS011;21562;49.476;6.086;2023-06-14T09:04:01;12.82;;;5.03;;
35444;SDS011;21562;49.476;6.086;2023-06-14T09:06:28;11.95;;;4.75;;
35444;SDS011;21562;49.476;6.086;2023-06-14T09:08:55;23.15;;;6.75;;
35444;SDS011;21562;49.476;6.086;2023-06-14T09:11:24;10.30;;;5.60;;
35444;SDS011;21562;49.476;6.086;2023-06-14T09:13:51;10.43;;;4.50;;
35444;SDS011;21562;49.476;6.086;2023-06-14T09:16:17;11.05;;;4.90;;
35444;SDS011;21562;49.476;6.086;2023-06-14T09:18:45;13.98;;;5.03;;
35444;SDS011;21562;49.476;6.086;2023-06-14T09:21:15;53.33;;;5.30;;
35444;SDS011;21562;49.476;6.086;2023-06-14T09:23:46;10.57;;;4.80;;
35444;SDS011;21562;49.476;6.086;2023-06-14T09:28:42;11.80;;;4.93;;
35444;SDS011;21562;49.476;6.086;2023-06-14T09:31:11;9.07;;;4.30;;
35444;SDS011;21562;49.476;6.086;2023-06-14T09:33:38;10.02;;;4.47;;
35444;SDS011;21562;49.476;6.086;2023-06-14T09:36:04;8.13;;;4.70;;
35444;SDS011;21562;49.476;6.086;2023-06-14T09:38:34;5.88;;;4.05;;
35444;SDS011;21562;49.476;6.086;2023-06-14T09:41:00;13.93;;;4.00;;
35444;SDS011;21562;49.476;6.086;2023-06-14T09:43:29;16.05;;;4.40;;
35444;SDS011;21562;49.476;6.086;2023-06-14T09:45:54;7.07;;;3.72;;
35444;SDS011;21562;49.476;6.086;2023-06-14T09:48:21;9.20;;;4.30;;
35444;SDS011;21562;49.476;6.086;2023-06-14T09:50:46;9.90;;;4.20;;
35444;SDS011;21562;49.476;6.086;2023-06-14T09:53:15;10.00;;;3.67;;
35444;SDS011;21562;49.476;6.086;2023-06-14T09:55:41;6.47;;;4.10;;
35444;SDS011;21562;49.476;6.086;2023-06-14T09:58:08;11.90;;;4.32;;
35444;SDS011;21562;49.476;6.086;2023-06-14T10:00:35;12.77;;;4.30;;
35444;SDS011;21562;49.476;6.086;2023-06-14T10:03:12;12.93;;;4.72;;
35444;SDS011;21562;49.476;6.086;2023-06-14T10:05:39;6.70;;;4.10;;
35444;SDS011;21562;49.476;6.086;2023-06-14T10:08:11;7.65;;;4.20;;
35444;SDS011;21562;49.476;6.086;2023-06-14T10:10:42;11.50;;;4.25;;
35444;SDS011;21562;49.476;6.086;2023-06-14T10:13:09;7.00;;;4.03;;
35444;SDS011;21562;49.476;6.086;2023-06-14T10:18:33;9.57;;;4.72;;
35444;SDS011;21562;49.476;6.086;2023-06-14T10:24:28;6.95;;;4.13;;
35444;SDS011;21562;49.476;6.086;2023-06-14T10:26:57;11.13;;;4.95;;
35444;SDS011;21562;49.476;6.086;2023-06-14T10:29:27;7.20;;;4.03;;
35444;SDS011;21562;49.476;6.086;2023-06-14T10:31:57;7.30;;;4.20;;
35444;SDS011;21562;49.476;6.086;2023-06-14T10:37:00;7.78;;;4.07;;
35444;SDS011;21562;49.476;6.086;2023-06-14T10:39:32;10.57;;;5.50;;
35444;SDS011;21562;49.476;6.086;2023-06-14T10:42:03;10.02;;;4.28;;
35444;SDS011;21562;49.476;6.086;2023-06-14T10:47:00;12.05;;;4.47;;
35444;SDS011;21562;49.476;6.086;2023-06-14T10:49:42;9.88;;;4.03;;
35444;SDS011;21562;49.476;6.086;2023-06-14T10:52:16;8.52;;;4.05;;
35444;SDS011;21562;49.476;6.086;2023-06-14T10:57:24;7.10;;;3.78;;
35444;SDS011;21562;49.476;6.086;2023-06-14T10:59:50;8.10;;;3.95;;
35444;SDS011;21562;49.476;6.086;2023-06-14T11:04:48;6.72;;;4.28;;
35444;SDS011;21562;49.476;6.086;2023-06-14T11:13:01;7.22;;;4.15;;
35444;SDS011;21562;49.476;6.086;2023-06-14T11:15:30;10.38;;;3.92;;
35444;SDS011;21562;49.476;6.086;2023-06-14T11:17:57;10.93;;;4.15;;
35444;SDS011;21562;49.476;6.086;2023-06-14T11:20:26;7.78;;;3.95;;
35444;SDS011;21562;49.476;6.086;2023-06-14T11:22:53;8.82;;;4.47;;
35444;SDS011;21562;49.476;6.086;2023-06-14T11:25:19;10.00;;;4.10;;
35444;SDS011;21562;49.476;6.086;2023-06-14T11:27:45;10.65;;;4.40;;
35444;SDS011;21562;49.476;6.086;2023-06-14T11:30:11;9.25;;;3.95;;
35444;SDS011;21562;49.476;6.086;2023-06-14T11:32:38;9.40;;;4.03;;
35444;SDS011;21562;49.476;6.086;2023-06-14T11:35:04;13.90;;;4.13;;
35444;SDS011;21562;49.476;6.086;2023-06-14T11:37:31;7.47;;;4.45;;
35444;SDS011;21562;49.476;6.086;2023-06-14T11:40:00;7.63;;;3.80;;
35444;SDS011;21562;49.476;6.086;2023-06-14T11:42:26;4.80;;;3.53;;
35444;SDS011;21562;49.476;6.086;2023-06-14T11:44:55;7.15;;;4.20;;
35444;SDS011;21562;49.476;6.086;2023-06-14T11:47:22;7.20;;;3.80;;
35444;SDS011;21562;49.476;6.086;2023-06-14T11:49:48;16.48;;;3.65;;
35444;SDS011;21562;49.476;6.086;2023-06-14T11:52:14;6.82;;;3.75;;
35444;SDS011;21562;49.476;6.086;2023-06-14T11:54:41;9.60;;;3.53;;
35444;SDS011;21562;49.476;6.086;2023-06-14T11:57:07;7.95;;;3.58;;
35444;SDS011;21562;49.476;6.086;2023-06-14T11:59:39;5.35;;;3.70;;
35444;SDS011;21562;49.476;6.086;2023-06-14T12:02:05;10.25;;;4.88;;
35444;SDS011;21562;49.476;6.086;2023-06-14T12:04:32;8.45;;;4.05;;
35444;SDS011;21562;49.476;6.086;2023-06-14T12:12:39;10.63;;;3.80;;
35444;SDS011;21562;49.476;6.086;2023-06-14T12:15:06;5.43;;;3.60;;
35444;SDS011;21562;49.476;6.086;2023-06-14T12:17:35;6.13;;;3.28;;
35444;SDS011;21562;49.476;6.086;2023-06-14T12:20:06;4.38;;;3.63;;
35444;SDS011;21562;49.476;6.086;2023-06-14T12:22:54;8.32;;;3.38;;
35444;SDS011;21562;49.476;6.086;2023-06-14T12:25:30;4.80;;;3.47;;
35444;SDS011;21562;49.476;6.086;2023-06-14T12:28:05;6.82;;;3.58;;
35444;SDS011;21562;49.476;6.086;2023-06-14T12:30:33;8.63;;;3.75;;
35444;SDS011;21562;49.476;6.086;2023-06-14T12:33:01;6.60;;;3.50;;
35444;SDS011;21562;49.476;6.086;2023-06-14T12:35:27;6.85;;;3.30;;
35444;SDS011;21562;49.476;6.086;2023-06-14T12:37:52;6.47;;;3.50;;
35444;SDS011;21562;49.476;6.086;2023-06-14T12:40:18;5.85;;;3.45;;
35444;SDS011;21562;49.476;6.086;2023-06-14T12:42:44;5.35;;;3.20;;
35444;SDS011;21562;49.476;6.086;2023-06-14T12:45:12;10.27;;;3.70;;
35444;SDS011;21562;49.476;6.086;2023-06-14T12:47:38;8.10;;;3.38;;
35444;SDS011;21562;49.476;6.086;2023-06-14T12:50:04;9.82;;;3.63;;
35444;SDS011;21562;49.476;6.086;2023-06-14T12:52:30;4.43;;;2.95;;
35444;SDS011;21562;49.476;6.086;2023-06-14T12:54:56;6.95;;;3.45;;
35444;SDS011;21562;49.476;6.086;2023-06-14T12:57:22;5.75;;;3.22;;
35444;SDS011;21562;49.476;6.086;2023-06-14T12:59:48;11.35;;;3.50;;
35444;SDS011;21562;49.476;6.086;2023-06-14T13:02:15;6.70;;;3.40;;
35444;SDS011;21562;49.476;6.086;2023-06-14T13:04:42;10.52;;;3.90;;
35444;SDS011;21562;49.476;6.086;2023-06-14T13:07:08;5.43;;;3.63;;
35444;SDS011;21562;49.476;6.086;2023-06-14T13:09:35;9.93;;;3.60;;
35444;SDS011;21562;49.476;6.086;2023-06-14T13:12:01;6.57;;;3.35;;
35444;SDS011;21562;49.476;6.086;2023-06-14T13:14:27;5.78;;;3.47;;
35444;SDS011;21562;49.476;6.086;2023-06-14T13:16:53;11.00;;;3.70;;
35444;SDS011;21562;49.476;6.086;2023-06-14T13:19:19;10.52;;;3.20;;
35444;SDS011;21562;49.476;6.086;2023-06-14T13:21:45;17.05;;;3.88;;
35444;SDS011;21562;49.476;6.086;2023-06-14T13:24:11;9.50;;;3.78;;
35444;SDS011;21562;49.476;6.086;2023-06-14T13:26:37;6.88;;;3.38;;
35444;SDS011;21562;49.476;6.086;2023-06-14T13:29:02;6.53;;;3.20;;
35444;SDS011;21562;49.476;6.086;2023-06-14T13:31:28;5.65;;;3.33;;
35444;SDS011;21562;49.476;6.086;2023-06-14T13:33:54;10.55;;;3.60;;
35444;SDS011;21562;49.476;6.086;2023-06-14T13:36:20;5.40;;;3.38;;
35444;SDS011;21562;49.476;6.086;2023-06-14T13:38:46;16.15;;;3.75;;
35444;SDS011;21562;49.476;6.086;2023-06-14T13:41:11;7.80;;;3.70;;
35444;SDS011;21562;49.476;6.086;2023-06-14T13:43:37;11.80;;;3.85;;
35444;SDS011;21562;49.476;6.086;2023-06-14T13:46:03;7.05;;;3.42;;
35444;SDS011;21562;49.476;6.086;2023-06-14T13:48:28;5.60;;;2.97;;
35444;SDS011;21562;49.476;6.086;2023-06-14T13:50:54;8.63;;;3.25;;
35444;SDS011;21562;49.476;6.086;2023-06-14T13:53:20;5.35;;;3.55;;
35444;SDS011;21562;49.476;6.086;2023-06-14T13:55:45;7.03;;;3.40;;
35444;SDS011;21562;49.476;6.086;2023-06-14T13:58:11;4.93;;;2.85;;
35444;SDS011;21562;49.476;6.086;2023-06-14T14:00:37;6.80;;;3.35;;
35444;SDS011;21562;49.476;6.086;2023-06-14T14:03:05;6.00;;;3.35;;
35444;SDS011;21562;49.476;6.086;2023-06-14T14:05:31;7.97;;;3.30;;
35444;SDS011;21562;49.476;6.086;2023-06-14T14:07:57;10.85;;;3.60;;
35444;SDS011;21562;49.476;6.086;2023-06-14T14:10:24;4.22;;;2.95;;
35444;SDS011;21562;49.476;6.086;2023-06-14T14:12:50;7.10;;;3.20;;
35444;SDS011;21562;49.476;6.086;2023-06-14T14:15:16;6.07;;;2.97;;
35444;SDS011;21562;49.476;6.086;2023-06-14T14:17:42;7.18;;;3.53;;
35444;SDS011;21562;49.476;6.086;2023-06-14T14:20:08;13.63;;;3.30;;
35444;SDS011;21562;49.476;6.086;2023-06-14T14:22:34;7.60;;;3.22;;
35444;SDS011;21562;49.476;6.086;2023-06-14T14:24:59;6.35;;;2.85;;
35444;SDS011;21562;49.476;6.086;2023-06-14T14:27:25;7.40;;;3.60;;
35444;SDS011;21562;49.476;6.086;2023-06-14T14:29:51;4.00;;;2.95;;
35444;SDS011;21562;49.476;6.086;2023-06-14T14:32:16;5.50;;;3.22;;
35444;SDS011;21562;49.476;6.086;2023-06-14T14:34:42;7.28;;;3.17;;
35444;SDS011;21562;49.476;6.086;2023-06-14T14:37:07;5.15;;;3.10;;
35444;SDS011;21562;49.476;6.086;2023-06-14T14:39:33;6.47;;;3.25;;
35444;SDS011;21562;49.476;6.086;2023-06-14T14:41:59;5.15;;;3.20;;
35444;SDS011;21562;49.476;6.086;2023-06-14T14:44:25;7.07;;;2.97;;
35444;SDS011;21562;49.476;6.086;2023-06-14T14:46:50;7.18;;;3.28;;
35444;SDS011;21562;49.476;6.086;2023-06-14T14:49:16;7.00;;;3.03;;
35444;SDS011;21562;49.476;6.086;2023-06-14T14:51:42;8.38;;;3.80;;
35444;SDS011;21562;49.476;6.086;2023-06-14T14:54:07;4.80;;;3.20;;
35444;SDS011;21562;49.476;6.086;2023-06-14T14:56:33;5.82;;;3.38;;
35444;SDS011;21562;49.476;6.086;2023-06-14T14:59:00;6.88;;;3.13;;
35444;SDS011;21562;49.476;6.086;2023-06-14T15:01:26;9.70;;;3.55;;
35444;SDS011;21562;49.476;6.086;2023-06-14T15:03:51;6.70;;;3.15;;
35444;SDS011;21562;49.476;6.086;2023-06-14T15:06:17;6.60;;;3.47;;
35444;SDS011;21562;49.476;6.086;2023-06-14T15:08:43;11.40;;;4.25;;
35444;SDS011;21562;49.476;6.086;2023-06-14T15:11:08;7.85;;;3.22;;
35444;SDS011;21562;49.476;6.086;2023-06-14T15:13:34;4.55;;;2.70;;
35444;SDS011;21562;49.476;6.086;2023-06-14T15:16:00;6.30;;;3.15;;
35444;SDS011;21562;49.476;6.086;2023-06-14T15:18:26;5.25;;;3.13;;
35444;SDS011;21562;49.476;6.086;2023-06-14T15:20:51;8.30;;;2.88;;
35444;SDS011;21562;49.476;6.086;2023-06-14T15:23:17;9.30;;;2.92;;
35444;SDS011;21562;49.476;6.086;2023-06-14T15:25:45;7.20;;;2.70;;
35444;SDS011;21562;49.476;6.086;2023-06-14T15:28:14;7.88;;;3.30;;
35444;SDS011;21562;49.476;6.086;2023-06-14T15:30:39;7.47;;;2.92;;
35444;SDS011;21562;49.476;6.086;2023-06-14T15:33:05;10.30;;;3.25;;
35444;SDS011;21562;49.476;6.086;2023-06-14T15:35:31;9.57;;;3.00;;